createdAt,value
2022-12-01T00:01:11.075Z,94.61
2022-12-01T00:03:37.756Z,94.59
2022-12-01T00:06:22.876Z,94.54
2022-12-01T00:09:09.568Z,94.34
2022-12-01T00:11:37.509Z,94.13
2022-12-01T00:14:04.810Z,94.22
2022-12-01T00:16:31.313Z,94.12
2022-12-01T00:18:58.149Z,94.25
2022-12-01T00:21:25.325Z,93.53
2022-12-01T00:23:54.873Z,94.31
2022-12-01T00:26:22.034Z,94.08
2022-12-01T00:28:53.248Z,94.27
2022-12-01T00:31:19.789Z,94.60
2022-12-01T00:33:46.283Z,94.76
2022-12-01T00:36:12.485Z,94.24
2022-12-01T00:38:38.922Z,94.32
2022-12-01T00:41:05.286Z,94.13
2022-12-01T00:43:31.922Z,93.62
2022-12-01T00:45:58.278Z,94.49
2022-12-01T00:48:25.025Z,94.64
2022-12-01T00:50:52.760Z,94.67
2022-12-01T00:53:19.212Z,94.31
2022-12-01T00:55:45.322Z,94.31
2022-12-01T00:58:12.229Z,94.26
2022-12-01T01:00:38.549Z,94.59
2022-12-01T01:03:06.879Z,94.72
2022-12-01T01:05:41.100Z,95.19
2022-12-01T01:08:14.298Z,95.38
2022-12-01T01:10:42.553Z,94.37
2022-12-01T01:13:10.722Z,95.26
2022-12-01T01:15:37.703Z,94.69
2022-12-01T01:18:05.586Z,94.96
2022-12-01T01:20:32.690Z,94.93
2022-12-01T01:22:59.022Z,94.94
2022-12-01T01:25:25.110Z,94.51
2022-12-01T01:27:51.473Z,94.19
2022-12-01T01:30:19.710Z,93.82
2022-12-01T01:32:46.269Z,94.48
2022-12-01T01:35:12.345Z,93.93
2022-12-01T01:37:39.227Z,93.28
2022-12-01T01:40:06.267Z,93.44
2022-12-01T01:42:32.786Z,93.88
2022-12-01T01:44:58.866Z,93.55
2022-12-01T01:47:38.520Z,93.28
2022-12-01T01:50:09.352Z,93.65
2022-12-01T01:52:44.616Z,93.59
2022-12-01T01:55:12.117Z,94.10
2022-12-01T01:57:39.477Z,94.01
2022-12-01T02:00:13.181Z,93.96
2022-12-01T02:02:44.402Z,93.82
2022-12-01T02:05:20.219Z,94.15
2022-12-01T02:07:47.930Z,94.25
2022-12-01T02:10:21.553Z,94.31
2022-12-01T02:13:15.952Z,94.17
2022-12-01T02:16:06.094Z,94.26
2022-12-01T02:18:51.504Z,94.30
2022-12-01T02:21:39.201Z,93.79
2022-12-01T02:24:26.843Z,93.65
2022-12-01T02:27:31.487Z,93.33
2022-12-01T02:30:03.911Z,93.38
2022-12-01T02:32:53.018Z,93.75
2022-12-01T02:35:36.687Z,92.90
2022-12-01T02:38:27.826Z,94.09
2022-12-01T02:41:15.908Z,93.52
2022-12-01T02:44:04.532Z,93.89
2022-12-01T02:46:35.639Z,94.10
2022-12-01T02:49:07.441Z,93.62
2022-12-01T02:51:37.381Z,94.06
2022-12-01T02:54:05.231Z,93.56
2022-12-01T02:56:31.798Z,93.48
2022-12-01T02:58:57.915Z,93.17
2022-12-01T03:01:41.655Z,93.27
2022-12-01T03:04:16.582Z,92.92
2022-12-01T03:06:59.385Z,92.64
2022-12-01T03:09:33.358Z,92.76
2022-12-01T03:12:14.941Z,92.59
2022-12-01T03:14:44.414Z,92.35
2022-12-01T03:17:18.987Z,92.10
2022-12-01T03:19:52.825Z,92.47
2022-12-01T03:22:31.272Z,92.44
2022-12-01T03:25:00.556Z,92.47
2022-12-01T03:27:32.833Z,93.11
2022-12-01T03:30:01.318Z,93.18
2022-12-01T03:32:37.921Z,93.15
2022-12-01T03:35:08.326Z,93.08
2022-12-01T03:37:40.810Z,93.36
2022-12-01T03:40:11.421Z,93.37
2022-12-01T03:42:44.729Z,93.40
2022-12-01T03:45:35.850Z,93.49
2022-12-01T03:48:02.671Z,93.46
2022-12-01T03:50:48.796Z,93.76
2022-12-01T03:53:24.108Z,93.32
2022-12-01T03:55:55.787Z,93.83
2022-12-01T03:58:35.020Z,93.75
2022-12-01T04:01:03.085Z,93.83
2022-12-01T04:03:29.712Z,93.67
2022-12-01T04:05:57.347Z,94.08
2022-12-01T04:08:24.507Z,94.28
2022-12-01T04:10:50.955Z,94.38
2022-12-01T04:13:23.715Z,94.44
2022-12-01T04:15:54.393Z,94.51
2022-12-01T04:18:21.292Z,94.51
2022-12-01T04:20:49.094Z,95.07
2022-12-01T04:23:35.520Z,95.65
2022-12-01T04:26:04.224Z,95.44
2022-12-01T04:28:31.001Z,95.91
2022-12-01T04:30:57.141Z,95.12
2022-12-01T04:33:23.550Z,95.50
2022-12-01T04:35:57.997Z,95.60
2022-12-01T04:38:30.071Z,95.76
2022-12-01T04:40:57.109Z,96.09
2022-12-01T04:43:23.474Z,96.75
2022-12-01T04:45:49.796Z,96.63
2022-12-01T04:48:16.293Z,96.96
2022-12-01T04:50:42.602Z,97.33
2022-12-01T04:53:09.021Z,96.73
2022-12-01T04:55:38.615Z,96.51
2022-12-01T04:58:05.637Z,96.26
2022-12-01T05:00:32.764Z,96.92
2022-12-01T05:03:00.029Z,96.62
2022-12-01T05:05:26.388Z,96.67
2022-12-01T05:07:52.982Z,96.36
2022-12-01T05:10:19.122Z,97.09
2022-12-01T05:12:45.596Z,97.15
2022-12-01T05:15:12.467Z,97.56
2022-12-01T05:17:39.202Z,98.13
2022-12-01T05:20:25.599Z,97.42
2022-12-01T05:23:06.466Z,96.95
2022-12-01T05:25:33.340Z,97.00
2022-12-01T05:28:00.099Z,97.63
2022-12-01T05:30:28.683Z,97.48
2022-12-01T05:32:55.878Z,97.28
2022-12-01T05:35:22.023Z,97.50
2022-12-01T05:37:48.365Z,97.38
2022-12-01T05:40:14.541Z,97.35
2022-12-01T05:42:40.949Z,97.65
2022-12-01T05:45:07.459Z,97.34
2022-12-01T05:47:33.837Z,96.82
2022-12-01T05:50:05.246Z,97.28
2022-12-01T05:52:34.292Z,96.96
2022-12-01T05:55:01.385Z,96.31
2022-12-01T05:57:27.912Z,97.27
2022-12-01T05:59:54.190Z,97.64
2022-12-01T06:02:21.100Z,97.30
2022-12-01T06:04:47.424Z,97.16
2022-12-01T06:07:13.812Z,97.49
2022-12-01T06:09:39.960Z,97.82
2022-12-01T06:12:06.487Z,97.56
2022-12-01T06:14:32.584Z,97.29
2022-12-01T06:16:59.096Z,96.90
2022-12-01T06:19:25.263Z,97.00
2022-12-01T06:21:51.765Z,97.32
2022-12-01T06:24:17.964Z,96.87
2022-12-01T06:26:44.354Z,96.66
2022-12-01T06:29:10.545Z,96.45
2022-12-01T06:31:37.057Z,96.42
2022-12-01T06:34:03.282Z,96.52
2022-12-01T06:36:29.736Z,95.73
2022-12-01T06:38:55.811Z,95.83
2022-12-01T06:41:22.251Z,94.92
2022-12-01T06:43:48.475Z,95.39
2022-12-01T06:46:15.076Z,95.62
2022-12-01T06:48:41.336Z,95.56
2022-12-01T06:51:09.163Z,95.52
2022-12-01T06:53:37.052Z,95.32
2022-12-01T06:56:04.872Z,95.28
2022-12-01T06:58:32.028Z,94.57
2022-12-01T07:00:59.580Z,95.03
2022-12-01T07:03:26.227Z,95.57
2022-12-01T07:05:59.679Z,94.79
2022-12-01T07:08:27.739Z,94.65
2022-12-01T07:11:05.365Z,94.75
2022-12-01T07:13:33.745Z,94.98
2022-12-01T07:16:05.156Z,94.61
2022-12-01T07:18:32.457Z,93.91
2022-12-01T07:21:00.386Z,93.77
2022-12-01T07:23:26.557Z,93.58
2022-12-01T07:26:10.069Z,93.47
2022-12-01T07:28:36.103Z,93.87
2022-12-01T07:31:06.912Z,93.40
2022-12-01T07:33:33.450Z,93.53
2022-12-01T07:36:00.827Z,92.89
2022-12-01T07:38:29.040Z,92.91
2022-12-01T07:41:01.586Z,92.73
2022-12-01T07:43:29.359Z,92.90
2022-12-01T07:45:55.874Z,92.74
2022-12-01T07:48:22.047Z,92.76
2022-12-01T07:50:48.466Z,93.06
2022-12-01T07:53:14.726Z,92.84
2022-12-01T07:55:47.376Z,93.41
2022-12-01T07:58:13.488Z,92.70
2022-12-01T08:00:39.830Z,93.00
2022-12-01T08:03:06.033Z,93.38
2022-12-01T08:05:32.606Z,93.09
2022-12-01T08:07:59.089Z,92.50
2022-12-01T08:10:25.833Z,92.69
2022-12-01T08:12:52.097Z,92.71
2022-12-01T08:15:18.556Z,92.08
2022-12-01T08:17:44.734Z,92.13
2022-12-01T08:20:11.793Z,92.03
2022-12-01T08:22:38.262Z,92.19
2022-12-01T08:25:06.203Z,92.36
2022-12-01T08:27:34.501Z,92.06
2022-12-01T08:30:01.733Z,91.91
2022-12-01T08:32:29.690Z,92.20
2022-12-01T08:34:56.374Z,92.20
2022-12-01T08:37:22.732Z,91.76
2022-12-01T08:39:49.791Z,91.87
2022-12-01T08:42:16.472Z,92.81
2022-12-01T08:44:43.041Z,92.65
2022-12-01T08:47:12.036Z,91.91
2022-12-01T08:49:41.098Z,93.11
2022-12-01T08:52:07.507Z,92.96
2022-12-01T08:54:34.151Z,93.25
2022-12-01T08:57:00.380Z,93.37
2022-12-01T08:59:27.111Z,93.56
2022-12-01T09:01:53.478Z,92.76
2022-12-01T09:04:24.038Z,92.43
2022-12-01T09:06:51.938Z,92.24
2022-12-01T09:09:21.764Z,92.39
2022-12-01T09:11:48.331Z,92.43
2022-12-01T09:14:17.281Z,92.65
2022-12-01T09:16:45.640Z,93.23
2022-12-01T09:19:13.544Z,92.56
2022-12-01T09:21:42.134Z,93.49
2022-12-01T09:24:11.354Z,92.84
2022-12-01T09:26:37.531Z,92.77
2022-12-01T09:29:06.808Z,92.88
2022-12-01T09:31:33.646Z,93.38
2022-12-01T09:34:03.378Z,93.08
2022-12-01T09:36:31.208Z,93.20
2022-12-01T09:38:58.170Z,93.58
2022-12-01T09:41:37.204Z,93.06
2022-12-01T09:44:19.923Z,93.07
2022-12-01T09:46:57.136Z,92.97
2022-12-01T09:49:35.242Z,93.74
2022-12-01T09:52:01.404Z,94.38
2022-12-01T09:54:28.571Z,93.73
2022-12-01T09:56:56.393Z,94.38
2022-12-01T09:59:26.341Z,94.68
2022-12-01T10:02:00.388Z,94.39
2022-12-01T10:04:34.961Z,93.74
2022-12-01T10:07:19.503Z,93.66
2022-12-01T10:09:58.667Z,93.39
2022-12-01T10:12:30.372Z,93.81
2022-12-01T10:15:05.871Z,93.86
2022-12-01T10:17:56.461Z,93.62
2022-12-01T10:20:48.984Z,93.45
2022-12-01T10:23:34.251Z,93.63
2022-12-01T10:26:13.863Z,93.66
2022-12-01T10:28:42.959Z,94.03
2022-12-01T10:31:19.098Z,93.28
2022-12-01T10:33:58.433Z,93.83
2022-12-01T10:36:27.618Z,94.11
2022-12-01T10:38:54.131Z,94.78
2022-12-01T10:41:23.757Z,94.03
2022-12-01T10:43:51.886Z,94.08
2022-12-01T10:46:24.086Z,94.67
2022-12-01T10:48:55.769Z,94.28
2022-12-01T10:51:24.004Z,94.98
2022-12-01T10:53:57.572Z,94.29
2022-12-01T10:56:24.290Z,94.34
2022-12-01T10:58:56.917Z,94.02
2022-12-01T11:01:31.329Z,94.56
2022-12-01T11:04:05.295Z,94.05
2022-12-01T11:06:32.445Z,93.17
2022-12-01T11:09:06.118Z,93.76
2022-12-01T11:11:32.491Z,93.01
2022-12-01T11:14:01.995Z,93.62
2022-12-01T11:16:54.598Z,93.02
2022-12-01T11:19:26.995Z,92.45
2022-12-01T11:21:57.333Z,92.77
2022-12-01T11:24:42.066Z,93.49
2022-12-01T11:27:16.552Z,93.57
2022-12-01T11:29:43.186Z,93.92
2022-12-01T11:32:30.812Z,94.08
2022-12-01T11:35:12.642Z,94.40
2022-12-01T11:38:13.113Z,94.29
2022-12-01T11:40:50.732Z,94.52
2022-12-01T11:43:35.717Z,94.37
2022-12-01T11:46:05.018Z,94.86
2022-12-01T11:48:36.288Z,95.10
2022-12-01T11:51:04.494Z,95.83
2022-12-01T11:53:38.576Z,95.79
2022-12-01T11:56:24.120Z,96.12
2022-12-01T11:59:03.656Z,97.00
2022-12-01T12:01:38.991Z,97.01
2022-12-01T12:04:26.680Z,98.04
2022-12-01T12:07:16.170Z,98.28
2022-12-01T12:10:01.343Z,98.22
2022-12-01T12:12:27.428Z,98.29
2022-12-01T12:15:31.022Z,98.25
2022-12-01T12:18:13.998Z,97.21
2022-12-01T12:20:40.619Z,96.94
2022-12-01T12:23:40.605Z,97.28
2022-12-01T12:26:51.868Z,97.06
2022-12-01T12:29:52.154Z,97.37
2022-12-01T12:32:34.079Z,97.46
2022-12-01T12:35:00.223Z,97.00
2022-12-01T12:37:51.417Z,97.38
2022-12-01T12:40:35.798Z,97.91
2022-12-01T12:43:09.117Z,98.57
2022-12-01T12:46:03.068Z,97.80
2022-12-01T12:49:03.905Z,97.42
2022-12-01T12:51:37.545Z,98.15
2022-12-01T12:54:29.242Z,97.53
2022-12-01T12:57:02.560Z,97.85
2022-12-01T12:59:38.731Z,97.54
2022-12-01T13:02:22.361Z,98.23
2022-12-01T13:04:52.182Z,97.90
2022-12-01T13:07:44.274Z,97.88
2022-12-01T13:10:29.440Z,97.67
2022-12-01T13:13:36.992Z,97.72
2022-12-01T13:16:09.926Z,98.27
2022-12-01T13:18:49.045Z,98.58
2022-12-01T13:21:18.642Z,98.68
2022-12-01T13:23:48.964Z,98.87
2022-12-01T13:26:19.350Z,98.66
2022-12-01T13:28:50.672Z,98.85
2022-12-01T13:31:19.187Z,99.59
2022-12-01T13:34:04.112Z,99.61
2022-12-01T13:36:48.395Z,99.40
2022-12-01T13:39:36.576Z,99.24
2022-12-01T13:42:07.623Z,99.81
2022-12-01T13:44:36.775Z,100.00
2022-12-01T13:47:09.281Z,99.41
2022-12-01T13:49:39.929Z,99.21
2022-12-01T13:52:21.861Z,99.58
2022-12-01T13:55:09.467Z,99.37
2022-12-01T13:57:44.172Z,98.88
2022-12-01T14:00:23.377Z,98.84
2022-12-01T14:03:32.703Z,98.97
2022-12-01T14:06:20.281Z,99.50
2022-12-01T14:08:52.429Z,98.92
2022-12-01T14:11:39.165Z,98.91
2022-12-01T14:14:08.771Z,99.01
2022-12-01T14:16:47.471Z,100.00
2022-12-01T14:19:43.145Z,99.86
2022-12-01T14:22:38.511Z,99.35
2022-12-01T14:25:20.121Z,100.00
2022-12-01T14:27:52.614Z,100.00
2022-12-01T14:30:41.507Z,99.93
2022-12-01T14:33:39.038Z,99.71
2022-12-01T14:36:24.053Z,99.58
2022-12-01T14:38:57.823Z,99.69
2022-12-01T14:41:27.499Z,99.59
2022-12-01T14:44:04.060Z,99.61
2022-12-01T14:46:55.789Z,99.76
2022-12-01T14:49:31.587Z,99.70
2022-12-01T14:52:06.709Z,99.33
2022-12-01T14:54:42.777Z,99.21
2022-12-01T14:57:16.549Z,98.63
2022-12-01T14:59:44.122Z,97.47
2022-12-01T15:02:13.029Z,97.33
2022-12-01T15:05:12.108Z,96.03
2022-12-01T15:07:47.058Z,96.30
2022-12-01T15:10:22.479Z,98.09
2022-12-01T15:12:50.567Z,98.89
2022-12-01T15:15:24.504Z,98.53
2022-12-01T15:17:54.776Z,97.67
2022-12-01T15:20:38.584Z,98.59
2022-12-01T15:23:11.835Z,98.72
2022-12-01T15:25:42.247Z,98.61
2022-12-01T15:28:18.088Z,98.01
2022-12-01T15:30:54.617Z,97.10
2022-12-01T15:33:35.384Z,96.99
2022-12-01T15:36:04.199Z,95.43
2022-12-01T15:38:38.346Z,96.23
2022-12-01T15:41:28.455Z,95.95
2022-12-01T15:43:56.774Z,96.56
2022-12-01T15:46:31.468Z,96.24
2022-12-01T15:49:28.937Z,95.21
2022-12-01T15:52:08.622Z,95.94
2022-12-01T15:54:37.058Z,95.22
2022-12-01T15:57:06.295Z,94.41
2022-12-01T15:59:38.588Z,94.48
2022-12-01T16:02:27.056Z,93.77
2022-12-01T16:05:08.737Z,93.61
2022-12-01T16:08:10.940Z,93.84
2022-12-01T16:10:29.822Z,93.68
2022-12-01T16:13:33.546Z,93.22
2022-12-01T16:16:00.388Z,92.99
2022-12-01T16:18:33.718Z,92.42
2022-12-01T16:21:04.528Z,92.55
2022-12-01T16:23:32.240Z,92.50
2022-12-01T16:26:01.917Z,92.16
2022-12-01T16:28:36.660Z,91.93
2022-12-01T16:31:05.613Z,91.95
2022-12-01T16:33:36.880Z,91.66
2022-12-01T16:36:03.723Z,91.96
2022-12-01T16:38:30.672Z,92.06
2022-12-01T16:41:14.210Z,91.98
2022-12-01T16:43:50.212Z,91.87
2022-12-01T16:46:30.916Z,91.92
2022-12-01T16:48:58.458Z,92.07
2022-12-01T16:51:35.485Z,91.98
2022-12-01T16:54:09.568Z,92.50
2022-12-01T16:56:36.066Z,91.36
2022-12-01T16:59:02.383Z,91.55
2022-12-01T17:01:29.136Z,91.32
2022-12-01T17:03:56.063Z,90.71
2022-12-01T17:06:22.692Z,90.55
2022-12-01T17:08:49.238Z,91.30
2022-12-01T17:11:15.689Z,90.58
2022-12-01T17:13:41.977Z,90.67
2022-12-01T17:16:13.837Z,90.43
2022-12-01T17:18:43.197Z,90.50
2022-12-01T17:21:10.916Z,90.36
2022-12-01T17:23:38.210Z,89.97
2022-12-01T17:26:10.749Z,90.81
2022-12-01T17:28:38.159Z,90.32
2022-12-01T17:31:06.087Z,90.46
2022-12-01T17:33:33.243Z,90.54
2022-12-01T17:36:10.011Z,90.47
2022-12-01T17:38:38.594Z,89.86
2022-12-01T17:41:08.309Z,89.81
2022-12-01T17:43:36.002Z,89.81
2022-12-01T17:46:04.973Z,89.63
2022-12-01T17:48:49.823Z,89.73
2022-12-01T17:51:19.474Z,89.65
2022-12-01T17:53:47.313Z,88.88
2022-12-01T17:56:15.603Z,89.52
2022-12-01T17:58:42.531Z,89.43
2022-12-01T18:01:18.330Z,89.82
2022-12-01T18:03:47.804Z,90.42
2022-12-01T18:06:15.852Z,90.13
2022-12-01T18:08:42.835Z,89.04
2022-12-01T18:11:13.777Z,89.87
2022-12-01T18:13:43.386Z,89.63
2022-12-01T18:16:22.147Z,89.65
2022-12-01T18:18:49.485Z,89.58
2022-12-01T18:21:18.087Z,90.25
2022-12-01T18:23:59.335Z,89.82
2022-12-01T18:26:27.422Z,89.78
2022-12-01T18:28:55.824Z,89.79
2022-12-01T18:31:26.668Z,90.05
2022-12-01T18:33:53.309Z,89.22
2022-12-01T18:36:22.859Z,89.98
2022-12-01T18:38:51.103Z,90.13
2022-12-01T18:41:19.435Z,89.72
2022-12-01T18:43:46.496Z,89.65
2022-12-01T18:46:15.925Z,89.78
2022-12-01T18:48:47.600Z,89.62
2022-12-01T18:51:14.996Z,89.97
2022-12-01T18:53:42.006Z,89.74
2022-12-01T18:56:11.714Z,90.13
2022-12-01T18:58:39.516Z,89.77
2022-12-01T19:01:23.819Z,89.79
2022-12-01T19:03:50.556Z,89.22
2022-12-01T19:06:17.670Z,89.64
2022-12-01T19:08:46.562Z,90.04
2022-12-01T19:11:13.713Z,90.05
2022-12-01T19:13:40.302Z,89.95
2022-12-01T19:16:09.844Z,89.97
2022-12-01T19:18:37.491Z,90.08
2022-12-01T19:21:06.133Z,89.88
2022-12-01T19:23:33.615Z,89.57
2022-12-01T19:26:06.279Z,90.53
2022-12-01T19:28:35.084Z,90.56
2022-12-01T19:31:10.489Z,90.78
2022-12-01T19:33:37.264Z,90.37
2022-12-01T19:36:09.238Z,90.63
2022-12-01T19:38:35.455Z,91.03
2022-12-01T19:41:02.855Z,90.10
2022-12-01T19:43:29.267Z,90.35
2022-12-01T19:45:55.893Z,90.80
2022-12-01T19:48:22.416Z,90.43
2022-12-01T19:50:49.615Z,90.77
2022-12-01T19:53:15.826Z,90.58
2022-12-01T19:55:42.379Z,89.33
2022-12-01T19:58:08.566Z,90.00
2022-12-01T20:00:35.578Z,90.23
2022-12-01T20:03:01.888Z,90.64
2022-12-01T20:05:28.732Z,91.08
2022-12-01T20:07:55.058Z,91.28
2022-12-01T20:10:21.778Z,91.21
2022-12-01T20:12:49.339Z,90.92
2022-12-01T20:15:16.150Z,90.78
2022-12-01T20:17:43.035Z,90.52
2022-12-01T20:20:10.928Z,90.48
2022-12-01T20:22:38.060Z,90.43
2022-12-01T20:25:06.017Z,90.83
2022-12-01T20:27:32.365Z,91.91
2022-12-01T20:29:58.910Z,91.00
2022-12-01T20:32:25.245Z,91.20
2022-12-01T20:34:52.097Z,90.65
2022-12-01T20:37:18.893Z,90.71
2022-12-01T20:39:46.752Z,90.65
2022-12-01T20:42:12.984Z,91.52
2022-12-01T20:44:39.803Z,91.29
2022-12-01T20:47:06.099Z,91.38
2022-12-01T20:49:33.126Z,91.48
2022-12-01T20:51:59.335Z,91.65
2022-12-01T20:54:28.816Z,91.08
2022-12-01T20:56:56.132Z,91.98
2022-12-01T20:59:22.794Z,91.49
2022-12-01T21:01:49.214Z,91.51
2022-12-01T21:04:16.162Z,91.10
2022-12-01T21:06:42.554Z,91.08
2022-12-01T21:09:12.452Z,91.11
2022-12-01T21:12:06.320Z,91.07
2022-12-01T21:14:53.749Z,91.24
2022-12-01T21:17:43.622Z,89.85
2022-12-01T21:20:21.282Z,90.69
2022-12-01T21:22:49.333Z,91.47
2022-12-01T21:25:22.145Z,91.54
2022-12-01T21:27:49.032Z,91.80
2022-12-01T21:30:25.663Z,92.29
2022-12-01T21:32:53.221Z,92.01
2022-12-01T21:35:23.100Z,91.85
2022-12-01T21:37:53.776Z,91.82
2022-12-01T21:40:23.557Z,91.58
2022-12-01T21:42:50.850Z,91.00
2022-12-01T21:45:31.555Z,90.90
2022-12-01T21:48:08.162Z,91.54
2022-12-01T21:50:35.015Z,91.22
2022-12-01T21:53:01.368Z,91.12
2022-12-01T21:55:33.010Z,90.28
2022-12-01T21:57:59.361Z,90.21
2022-12-01T22:00:32.686Z,90.74
2022-12-01T22:03:07.875Z,90.57
2022-12-01T22:06:07.109Z,91.07
2022-12-01T22:08:39.382Z,90.87
2022-12-01T22:11:28.335Z,90.85
2022-12-01T22:14:00.807Z,90.42
2022-12-01T22:16:32.933Z,89.98
2022-12-01T22:19:01.844Z,90.23
2022-12-01T22:21:38.722Z,90.13
2022-12-01T22:24:07.677Z,89.83
2022-12-01T22:26:40.653Z,89.92
2022-12-01T22:29:25.643Z,89.89
2022-12-01T22:32:19.066Z,90.20
2022-12-01T22:34:50.283Z,90.59
2022-12-01T22:37:28.000Z,90.52
2022-12-01T22:39:55.903Z,90.44
2022-12-01T22:42:33.215Z,91.27
2022-12-01T22:45:18.010Z,91.02
2022-12-01T22:47:44.652Z,91.72
2022-12-01T22:50:40.042Z,91.64
2022-12-01T22:53:15.554Z,92.14
2022-12-01T22:55:42.020Z,91.84
2022-12-01T22:58:21.730Z,91.25
2022-12-01T23:00:47.817Z,90.58
2022-12-01T23:03:15.536Z,91.90
2022-12-01T23:05:41.908Z,91.76
2022-12-01T23:08:12.497Z,91.18
2022-12-01T23:10:40.133Z,91.38
2022-12-01T23:13:23.851Z,91.33
2022-12-01T23:15:52.826Z,90.86
2022-12-01T23:18:19.241Z,90.84
2022-12-01T23:20:50.768Z,91.60
2022-12-01T23:23:19.574Z,92.87
2022-12-01T23:25:48.550Z,93.99
2022-12-01T23:28:15.482Z,94.29
2022-12-01T23:30:43.590Z,93.34
2022-12-01T23:33:18.386Z,93.71
2022-12-01T23:35:57.059Z,94.42
2022-12-01T23:38:28.830Z,93.98
2022-12-01T23:40:58.686Z,93.87
2022-12-01T23:43:29.152Z,93.29
2022-12-01T23:46:19.816Z,94.46
2022-12-01T23:48:46.134Z,94.41
2022-12-01T23:51:17.772Z,94.21
2022-12-01T23:53:45.335Z,94.54
2022-12-01T23:56:16.251Z,94.77
2022-12-01T23:58:43.449Z,95.78
